createdAt,value
2018-06-21T00:00:44.414Z,99.90
2018-06-21T00:03:12.804Z,99.90
2018-06-21T00:05:41.340Z,99.90
2018-06-21T00:08:09.743Z,99.90
2018-06-21T00:10:38.164Z,99.90
2018-06-21T00:13:06.608Z,99.90
2018-06-21T00:15:35.057Z,99.90
2018-06-21T00:18:03.529Z,99.90
2018-06-21T00:20:31.945Z,99.90
2018-06-21T00:25:28.661Z,99.90
2018-06-21T00:27:57.260Z,99.90
2018-06-21T00:30:25.652Z,99.90
2018-06-21T00:32:54.056Z,99.90
2018-06-21T00:35:22.437Z,99.90
2018-06-21T00:37:50.887Z,99.90
2018-06-21T00:40:19.288Z,99.90
2018-06-21T00:42:47.711Z,99.90
2018-06-21T00:45:22.907Z,99.90
2018-06-21T00:47:51.336Z,99.90
2018-06-21T00:50:19.753Z,99.90
2018-06-21T00:52:48.135Z,99.90
2018-06-21T00:55:26.710Z,99.90
2018-06-21T00:57:55.121Z,99.90
2018-06-21T01:00:23.525Z,99.90
2018-06-21T01:02:51.920Z,99.90
2018-06-21T01:05:20.311Z,99.90
2018-06-21T01:07:48.724Z,99.90
2018-06-21T01:10:17.111Z,99.90
2018-06-21T01:12:45.553Z,99.90
2018-06-21T01:15:14.006Z,99.90
2018-06-21T01:17:42.415Z,99.90
2018-06-21T01:20:10.838Z,99.90
2018-06-21T01:22:39.228Z,99.90
2018-06-21T01:25:07.633Z,99.90
2018-06-21T01:27:36.036Z,99.90
2018-06-21T01:30:04.507Z,99.90
2018-06-21T01:32:32.948Z,99.90
2018-06-21T01:35:01.418Z,99.90
2018-06-21T01:39:57.993Z,99.90
2018-06-21T01:42:26.409Z,99.90
2018-06-21T01:44:54.807Z,99.90
2018-06-21T01:47:23.219Z,99.90
2018-06-21T01:49:51.673Z,99.90
2018-06-21T01:52:20.095Z,99.90
2018-06-21T01:54:48.508Z,99.90
2018-06-21T01:57:16.912Z,99.90
2018-06-21T01:59:45.311Z,99.90
2018-06-21T02:02:13.733Z,99.90
2018-06-21T02:04:42.168Z,99.90
2018-06-21T02:07:10.556Z,99.90
2018-06-21T02:09:39.129Z,99.90
2018-06-21T02:12:07.579Z,99.90
2018-06-21T02:14:35.972Z,99.90
2018-06-21T02:17:04.453Z,99.90
2018-06-21T02:19:32.852Z,99.90
2018-06-21T02:22:01.280Z,99.90
2018-06-21T02:24:29.660Z,99.90
2018-06-21T02:26:58.103Z,99.90
2018-06-21T02:29:26.521Z,99.90
2018-06-21T02:31:54.901Z,99.90
2018-06-21T02:34:23.349Z,99.90
2018-06-21T02:36:51.725Z,99.90
2018-06-21T02:39:20.117Z,99.90
2018-06-21T02:44:16.722Z,99.90
2018-06-21T02:46:45.117Z,99.90
2018-06-21T02:49:13.568Z,99.90
2018-06-21T02:51:42.468Z,99.90
2018-06-21T02:54:10.877Z,99.90
2018-06-21T02:56:39.279Z,99.90
2018-06-21T03:01:35.761Z,99.90
2018-06-21T03:04:04.227Z,99.90
2018-06-21T03:06:32.628Z,99.90
2018-06-21T03:09:01.022Z,99.90
2018-06-21T03:11:29.464Z,99.90
2018-06-21T03:13:57.912Z,99.90
2018-06-21T03:16:26.300Z,99.90
2018-06-21T03:18:54.703Z,99.90
2018-06-21T03:21:23.133Z,99.90
2018-06-21T03:23:51.541Z,99.90
2018-06-21T03:26:20.012Z,99.90
2018-06-21T03:28:48.503Z,99.90
2018-06-21T03:31:16.927Z,99.90
2018-06-21T03:33:45.764Z,99.90
2018-06-21T03:36:14.877Z,99.90
2018-06-21T03:38:43.847Z,99.90
2018-06-21T03:41:12.288Z,99.90
2018-06-21T03:43:40.832Z,99.90
2018-06-21T03:46:09.250Z,99.90
2018-06-21T03:48:37.650Z,99.90
2018-06-21T03:51:06.282Z,99.90
2018-06-21T03:53:35.028Z,99.90
2018-06-21T03:56:03.460Z,99.90
2018-06-21T03:58:31.892Z,99.90
2018-06-21T04:01:00.343Z,99.90
2018-06-21T04:03:28.873Z,99.90
2018-06-21T04:05:57.299Z,99.90
2018-06-21T04:08:25.936Z,99.90
2018-06-21T04:10:54.560Z,99.90
2018-06-21T04:13:23.024Z,99.90
2018-06-21T04:15:51.397Z,99.90
2018-06-21T04:18:28.371Z,99.90
2018-06-21T04:20:56.964Z,99.90
2018-06-21T04:23:25.348Z,99.90
2018-06-21T04:25:53.771Z,99.90
2018-06-21T04:28:22.271Z,99.90
2018-06-21T04:30:51.033Z,99.90
2018-06-21T04:33:19.412Z,99.90
2018-06-21T04:35:47.941Z,99.90
2018-06-21T04:38:19.611Z,99.90
2018-06-21T04:40:47.981Z,99.90
2018-06-21T04:43:16.379Z,99.90
2018-06-21T04:45:44.796Z,99.90
2018-06-21T04:48:13.273Z,99.90
2018-06-21T04:50:41.686Z,99.90
2018-06-21T04:53:10.079Z,99.90
2018-06-21T04:55:38.692Z,99.90
2018-06-21T04:58:08.960Z,99.90
2018-06-21T05:00:38.919Z,99.90
2018-06-21T05:03:08.781Z,99.90
2018-06-21T05:05:37.326Z,99.90
2018-06-21T05:08:08.178Z,99.90
2018-06-21T05:10:36.665Z,99.90
2018-06-21T05:13:05.993Z,99.90
2018-06-21T05:15:34.723Z,99.90
2018-06-21T05:18:04.071Z,99.90
2018-06-21T05:20:32.759Z,99.90
2018-06-21T05:23:01.148Z,99.90
2018-06-21T05:25:29.549Z,99.90
2018-06-21T05:27:57.972Z,99.90
2018-06-21T05:30:26.358Z,99.90
2018-06-21T05:32:54.769Z,99.90
2018-06-21T05:35:23.181Z,99.90
2018-06-21T05:37:51.653Z,99.90
2018-06-21T05:40:30.427Z,99.90
2018-06-21T05:42:59.949Z,99.90
2018-06-21T05:45:28.433Z,99.90
2018-06-21T05:47:58.374Z,99.90
2018-06-21T05:50:27.230Z,99.90
2018-06-21T05:52:56.553Z,99.90
2018-06-21T05:55:25.029Z,99.90
2018-06-21T05:57:53.400Z,99.90
2018-06-21T06:00:22.509Z,99.90
2018-06-21T06:02:51.442Z,99.90
2018-06-21T06:05:20.288Z,99.90
2018-06-21T06:07:48.892Z,99.90
2018-06-21T06:10:17.325Z,99.90
2018-06-21T06:12:45.777Z,99.90
2018-06-21T06:17:42.288Z,99.90
2018-06-21T06:20:10.745Z,99.90
2018-06-21T06:22:39.289Z,99.90
2018-06-21T06:25:07.711Z,99.90
2018-06-21T06:27:36.104Z,99.90
2018-06-21T06:30:05.925Z,99.90
2018-06-21T06:32:34.315Z,99.90
2018-06-21T06:35:02.863Z,99.90
2018-06-21T06:37:31.290Z,99.90
2018-06-21T06:39:59.677Z,99.90
2018-06-21T06:42:28.324Z,99.90
2018-06-21T06:44:56.704Z,99.90
2018-06-21T06:47:26.831Z,99.90
2018-06-21T06:49:55.273Z,99.90
2018-06-21T06:52:23.813Z,99.90
2018-06-21T06:54:52.245Z,99.90
2018-06-21T06:57:20.836Z,99.90
2018-06-21T06:59:49.217Z,99.90
2018-06-21T07:02:17.613Z,99.90
2018-06-21T07:04:46.059Z,99.90
2018-06-21T07:07:14.440Z,99.90
2018-06-21T07:09:42.840Z,99.90
2018-06-21T07:12:11.273Z,99.90
2018-06-21T07:14:39.732Z,99.90
2018-06-21T07:17:08.180Z,99.90
2018-06-21T07:19:36.564Z,99.90
2018-06-21T07:22:05.040Z,99.90
2018-06-21T07:24:33.457Z,99.90
2018-06-21T07:27:01.891Z,99.90
2018-06-21T07:29:30.324Z,99.90
2018-06-21T07:31:58.761Z,99.90
2018-06-21T07:34:27.156Z,99.90
2018-06-21T07:36:55.548Z,99.90
2018-06-21T07:39:24.084Z,99.90
2018-06-21T07:41:52.511Z,99.90
2018-06-21T07:44:20.908Z,99.90
2018-06-21T07:46:49.386Z,99.90
2018-06-21T07:49:17.755Z,99.90
2018-06-21T07:51:46.133Z,99.90
2018-06-21T07:54:14.561Z,99.90
2018-06-21T07:56:43.269Z,99.90
2018-06-21T07:59:11.749Z,99.90
2018-06-21T08:01:40.301Z,99.90
2018-06-21T08:04:09.164Z,99.90
2018-06-21T08:06:37.830Z,99.90
2018-06-21T08:09:10.971Z,99.90
2018-06-21T08:11:39.420Z,99.90
2018-06-21T08:14:08.085Z,99.90
2018-06-21T08:16:36.973Z,99.90
2018-06-21T08:19:05.973Z,99.90
2018-06-21T08:21:34.396Z,99.90
2018-06-21T08:24:02.771Z,99.90
2018-06-21T08:26:31.196Z,99.90
2018-06-21T08:28:59.635Z,99.90
2018-06-21T08:31:28.013Z,99.90
2018-06-21T08:33:57.275Z,99.90
2018-06-21T08:36:25.716Z,99.90
2018-06-21T08:38:54.100Z,99.90
2018-06-21T08:41:22.484Z,99.90
2018-06-21T08:43:50.900Z,99.90
2018-06-21T08:46:19.364Z,99.90
2018-06-21T08:48:47.836Z,99.90
2018-06-21T08:51:16.302Z,99.90
2018-06-21T08:53:44.697Z,99.90
2018-06-21T08:56:13.150Z,99.90
2018-06-21T08:58:41.573Z,99.90
2018-06-21T09:01:09.984Z,99.90
2018-06-21T09:03:38.460Z,99.90
2018-06-21T09:06:06.858Z,99.90
2018-06-21T09:08:35.260Z,99.90
2018-06-21T09:11:03.717Z,99.90
2018-06-21T09:13:34.396Z,99.90
2018-06-21T09:16:03.501Z,99.90
2018-06-21T09:18:31.965Z,99.90
2018-06-21T09:21:00.778Z,99.90
2018-06-21T09:23:29.233Z,99.90
2018-06-21T09:25:57.728Z,99.90
2018-06-21T09:28:26.434Z,99.90
2018-06-21T09:30:54.827Z,99.90
2018-06-21T09:33:23.232Z,99.90
2018-06-21T09:35:51.732Z,99.90
2018-06-21T09:38:25.629Z,99.90
2018-06-21T09:40:59.385Z,99.90
2018-06-21T09:43:33.105Z,99.90
2018-06-21T09:47:07.808Z,99.90
2018-06-21T09:49:36.305Z,99.90
2018-06-21T09:52:05.819Z,99.90
2018-06-21T09:54:34.702Z,99.90
2018-06-21T09:57:03.113Z,99.90
2018-06-21T09:59:31.979Z,99.90
2018-06-21T10:02:00.392Z,99.90
2018-06-21T10:06:57.242Z,99.90
2018-06-21T10:09:25.712Z,99.90
2018-06-21T10:11:54.279Z,99.90
2018-06-21T10:14:23.057Z,99.90
2018-06-21T10:16:52.055Z,99.90
2018-06-21T10:19:20.497Z,99.90
2018-06-21T10:21:48.958Z,99.90
2018-06-21T10:24:17.385Z,99.90
2018-06-21T10:26:45.793Z,99.90
2018-06-21T10:29:14.197Z,99.90
2018-06-21T10:31:42.632Z,99.90
2018-06-21T10:34:11.014Z,99.90
2018-06-21T10:36:39.409Z,99.90
2018-06-21T10:39:10.048Z,99.90
2018-06-21T10:41:38.470Z,99.90
2018-06-21T10:44:06.923Z,99.90
2018-06-21T10:46:35.340Z,99.90
2018-06-21T10:49:03.996Z,99.90
2018-06-21T10:51:32.500Z,99.90
2018-06-21T10:54:00.982Z,99.90
2018-06-21T10:56:29.497Z,99.90
2018-06-21T10:58:57.888Z,99.90
2018-06-21T11:01:26.265Z,99.90
2018-06-21T11:03:54.689Z,99.90
2018-06-21T11:06:23.405Z,99.90
2018-06-21T11:08:51.833Z,99.90
2018-06-21T11:11:20.242Z,99.90
2018-06-21T11:13:48.678Z,99.90
2018-06-21T11:16:17.048Z,99.90
2018-06-21T11:18:45.478Z,99.90
2018-06-21T11:21:13.893Z,99.90
2018-06-21T11:23:42.368Z,99.90
2018-06-21T11:26:10.786Z,99.60
2018-06-21T11:28:39.178Z,99.50
2018-06-21T11:31:07.595Z,98.50
2018-06-21T11:33:36.004Z,96.70
2018-06-21T11:36:04.479Z,95.90
2018-06-21T11:38:32.884Z,93.40
2018-06-21T11:41:01.459Z,96.00
2018-06-21T11:43:29.934Z,95.30
2018-06-21T11:45:58.428Z,94.50
2018-06-21T11:48:26.837Z,93.40
2018-06-21T11:50:55.247Z,93.50
2018-06-21T11:53:23.804Z,93.20
2018-06-21T11:55:52.269Z,92.70
2018-06-21T11:58:20.712Z,91.40
2018-06-21T12:00:49.139Z,87.90
2018-06-21T12:03:17.790Z,88.20
2018-06-21T12:05:46.261Z,84.30
2018-06-21T12:08:14.689Z,85.40
2018-06-21T12:10:43.134Z,86.80
2018-06-21T12:13:11.728Z,88.20
2018-06-21T12:15:40.269Z,89.50
2018-06-21T12:18:08.683Z,90.30
2018-06-21T12:20:37.105Z,90.30
2018-06-21T12:23:05.764Z,89.20
2018-06-21T12:25:34.312Z,90.40
2018-06-21T12:28:02.721Z,87.00
2018-06-21T12:30:31.101Z,89.20
2018-06-21T12:32:59.488Z,87.00
2018-06-21T12:35:27.894Z,87.30
2018-06-21T12:37:56.316Z,85.40
2018-06-21T12:40:24.733Z,85.00
2018-06-21T12:42:53.171Z,85.00
2018-06-21T12:45:21.574Z,83.70
2018-06-21T12:47:49.988Z,85.20
2018-06-21T12:50:18.415Z,85.10
2018-06-21T12:52:46.868Z,85.90
2018-06-21T12:55:15.341Z,79.30
2018-06-21T12:57:43.847Z,81.60
2018-06-21T13:00:12.441Z,83.30
2018-06-21T13:02:40.876Z,81.60
2018-06-21T13:07:37.417Z,85.30
2018-06-21T13:10:17.188Z,82.40
2018-06-21T13:13:02.236Z,81.60
2018-06-21T13:15:30.648Z,80.90
2018-06-21T13:17:59.041Z,81.20
2018-06-21T13:20:27.417Z,79.90
2018-06-21T13:22:55.824Z,81.50
2018-06-21T13:25:24.252Z,81.40
2018-06-21T13:27:52.663Z,81.80
2018-06-21T13:30:21.060Z,83.70
2018-06-21T13:32:49.543Z,79.90
2018-06-21T13:35:18.029Z,80.50
2018-06-21T13:37:46.445Z,80.20
2018-06-21T13:40:14.847Z,80.30
2018-06-21T13:42:43.615Z,81.50
2018-06-21T13:45:12.569Z,82.60
2018-06-21T13:47:41.196Z,83.70
2018-06-21T13:50:09.672Z,82.40
2018-06-21T13:55:06.249Z,80.00
2018-06-21T13:57:34.733Z,82.20
2018-06-21T14:00:03.363Z,77.80
2018-06-21T14:02:31.769Z,76.80
2018-06-21T14:05:00.209Z,76.40
2018-06-21T14:07:28.856Z,77.90
2018-06-21T14:09:57.297Z,77.90
2018-06-21T14:12:25.722Z,79.20
2018-06-21T14:14:54.153Z,81.30
2018-06-21T14:17:22.570Z,78.70
2018-06-21T14:19:51.013Z,78.30
2018-06-21T14:22:19.520Z,78.80
2018-06-21T14:24:48.024Z,78.50
2018-06-21T14:27:16.519Z,80.40
2018-06-21T14:29:44.913Z,78.70
2018-06-21T14:32:13.386Z,77.40
2018-06-21T14:34:41.805Z,76.60
2018-06-21T14:37:10.264Z,79.70
2018-06-21T14:39:38.652Z,79.80
2018-06-21T14:42:07.089Z,80.90
2018-06-21T14:44:35.595Z,80.40
2018-06-21T14:47:04.150Z,80.90
2018-06-21T14:49:32.596Z,78.40
2018-06-21T14:52:01.118Z,79.30
2018-06-21T14:54:29.554Z,78.60
2018-06-21T14:56:58.097Z,76.60
2018-06-21T14:59:26.656Z,77.10
2018-06-21T15:01:55.106Z,77.70
2018-06-21T15:04:24.080Z,77.80
2018-06-21T15:06:52.709Z,80.00
2018-06-21T15:09:21.131Z,80.30
2018-06-21T15:11:49.548Z,79.80
2018-06-21T15:14:18.420Z,78.80
2018-06-21T15:16:46.829Z,77.50
2018-06-21T15:19:15.262Z,77.00
2018-06-21T15:21:43.713Z,78.00
2018-06-21T15:24:12.249Z,78.40
2018-06-21T15:26:40.686Z,78.80
2018-06-21T15:29:09.229Z,77.90
2018-06-21T15:31:37.632Z,77.70
2018-06-21T15:34:06.022Z,77.40
2018-06-21T15:36:34.717Z,79.00
2018-06-21T15:39:13.202Z,80.70
2018-06-21T15:41:41.697Z,80.50
2018-06-21T15:44:10.117Z,80.80
2018-06-21T15:46:38.533Z,80.70
2018-06-21T15:49:07.032Z,80.60
2018-06-21T15:51:35.468Z,82.50
2018-06-21T15:54:03.962Z,84.60
2018-06-21T15:56:32.376Z,83.90
2018-06-21T15:59:00.824Z,84.90
2018-06-21T16:01:29.256Z,85.30
2018-06-21T16:03:57.716Z,84.30
2018-06-21T16:06:26.149Z,82.40
2018-06-21T16:08:54.541Z,82.00
2018-06-21T16:11:23.015Z,80.80
2018-06-21T16:13:51.646Z,81.30
2018-06-21T16:16:21.513Z,82.40
2018-06-21T16:18:50.217Z,81.90
2018-06-21T16:21:19.028Z,82.30
2018-06-21T16:23:47.555Z,83.90
2018-06-21T16:26:16.075Z,83.50
2018-06-21T16:28:44.501Z,81.50
2018-06-21T16:31:12.920Z,82.90
2018-06-21T16:33:41.400Z,83.90
2018-06-21T16:36:09.816Z,81.30
2018-06-21T16:41:06.785Z,82.30
2018-06-21T16:43:35.216Z,81.80
2018-06-21T16:46:03.721Z,82.80
2018-06-21T16:48:32.125Z,83.00
2018-06-21T16:51:00.639Z,83.30
2018-06-21T16:53:28.992Z,84.00
2018-06-21T16:55:57.706Z,83.20
2018-06-21T16:58:26.143Z,83.20
2018-06-21T17:00:54.593Z,87.80
2018-06-21T17:03:23.013Z,85.70
2018-06-21T17:05:52.168Z,85.90
2018-06-21T17:08:20.644Z,83.20
2018-06-21T17:10:49.076Z,84.40
2018-06-21T17:13:17.507Z,86.10
2018-06-21T17:15:46.017Z,87.20
2018-06-21T17:18:14.419Z,87.20
2018-06-21T17:20:42.840Z,87.10
2018-06-21T17:23:11.421Z,89.00
2018-06-21T17:25:39.893Z,88.00
2018-06-21T17:28:08.346Z,89.60
2018-06-21T17:30:36.793Z,88.40
2018-06-21T17:33:05.241Z,88.90
2018-06-21T17:35:33.680Z,90.00
2018-06-21T17:38:02.102Z,89.70
2018-06-21T17:40:30.539Z,89.90
2018-06-21T17:42:58.984Z,90.70
2018-06-21T17:45:27.416Z,90.50
2018-06-21T17:47:55.866Z,90.60
2018-06-21T17:50:24.308Z,90.50
2018-06-21T17:52:52.742Z,90.10
2018-06-21T17:55:21.223Z,90.80
2018-06-21T17:57:49.819Z,90.70
2018-06-21T18:00:18.321Z,91.30
2018-06-21T18:02:46.741Z,92.00
2018-06-21T18:05:15.126Z,92.90
2018-06-21T18:07:43.553Z,92.30
2018-06-21T18:10:12.194Z,92.40
2018-06-21T18:12:40.639Z,92.70
2018-06-21T18:15:11.565Z,92.80
2018-06-21T18:17:40.040Z,93.00
2018-06-21T18:20:09.241Z,93.30
2018-06-21T18:22:37.712Z,93.80
2018-06-21T18:25:06.572Z,94.10
2018-06-21T18:27:35.030Z,93.90
2018-06-21T18:30:03.525Z,94.20
2018-06-21T18:32:31.998Z,94.30
2018-06-21T18:35:00.466Z,94.70
2018-06-21T18:37:28.915Z,94.50
2018-06-21T18:39:57.418Z,95.70
2018-06-21T18:42:25.852Z,96.10
2018-06-21T18:44:54.317Z,97.30
2018-06-21T18:47:22.777Z,99.90
2018-06-21T18:49:51.288Z,99.90
2018-06-21T18:52:19.826Z,99.90
2018-06-21T18:54:48.656Z,99.90
2018-06-21T18:57:17.162Z,99.90
2018-06-21T18:59:45.576Z,99.90
2018-06-21T19:02:14.078Z,99.90
2018-06-21T19:04:42.459Z,99.90
2018-06-21T19:07:16.173Z,99.90
2018-06-21T19:12:18.306Z,99.90
2018-06-21T19:14:46.757Z,99.90
2018-06-21T19:17:15.212Z,99.90
2018-06-21T19:19:43.628Z,99.90
2018-06-21T19:22:12.115Z,99.90
2018-06-21T19:24:40.751Z,99.90
2018-06-21T19:27:09.205Z,99.90
2018-06-21T19:29:37.696Z,99.90
2018-06-21T19:32:06.185Z,99.90
2018-06-21T19:34:34.613Z,99.90
2018-06-21T19:37:03.061Z,99.90
2018-06-21T19:39:31.481Z,99.90
2018-06-21T19:41:59.920Z,99.90
2018-06-21T19:44:28.516Z,99.90
2018-06-21T19:46:56.969Z,99.90
2018-06-21T19:49:25.435Z,99.90
2018-06-21T19:51:53.938Z,99.90
2018-06-21T19:54:22.447Z,99.90
2018-06-21T19:59:19.012Z,99.90
2018-06-21T20:01:47.473Z,99.90
2018-06-21T20:04:15.867Z,99.90
2018-06-21T20:06:44.439Z,99.90
2018-06-21T20:09:13.525Z,99.90
2018-06-21T20:11:41.935Z,99.90
2018-06-21T20:14:10.407Z,99.90
2018-06-21T20:16:39.749Z,99.90
2018-06-21T20:19:18.359Z,99.90
2018-06-21T20:21:46.759Z,99.90
2018-06-21T20:24:15.234Z,99.90
2018-06-21T20:26:44.518Z,99.90
2018-06-21T20:29:18.887Z,99.90
2018-06-21T20:31:47.348Z,99.90
2018-06-21T20:34:15.805Z,99.90
2018-06-21T20:36:44.267Z,99.90
2018-06-21T20:39:12.792Z,99.90
2018-06-21T20:41:41.263Z,99.90
2018-06-21T20:44:09.800Z,99.90
2018-06-21T20:46:38.184Z,99.90
2018-06-21T20:49:08.181Z,99.90
2018-06-21T20:51:36.599Z,99.90
2018-06-21T20:54:05.089Z,99.90
2018-06-21T20:56:33.577Z,99.90
2018-06-21T20:59:02.018Z,99.90
2018-06-21T21:01:30.433Z,99.90
2018-06-21T21:03:59.009Z,99.90
2018-06-21T21:06:27.521Z,99.90
2018-06-21T21:08:55.920Z,99.90
2018-06-21T21:11:24.526Z,99.90
2018-06-21T21:13:52.916Z,99.90
2018-06-21T21:16:21.304Z,99.90
2018-06-21T21:18:49.701Z,99.90
2018-06-21T21:21:18.101Z,99.90
2018-06-21T21:23:46.497Z,99.90
2018-06-21T21:26:14.851Z,99.90
2018-06-21T21:28:43.290Z,99.90
2018-06-21T21:31:11.773Z,99.90
2018-06-21T21:33:40.241Z,99.90
2018-06-21T21:36:08.713Z,99.90
2018-06-21T21:38:37.194Z,99.90
2018-06-21T21:41:05.665Z,99.90
2018-06-21T21:43:34.031Z,99.90
2018-06-21T21:46:02.436Z,99.90
2018-06-21T21:48:30.888Z,99.90
2018-06-21T21:50:59.308Z,99.90
2018-06-21T21:53:27.737Z,99.90
2018-06-21T21:55:56.137Z,99.90
2018-06-21T21:58:24.531Z,99.90
2018-06-21T22:00:54.116Z,99.90
2018-06-21T22:03:22.658Z,99.90
2018-06-21T22:08:19.151Z,99.90
2018-06-21T22:10:48.142Z,99.90
2018-06-21T22:13:17.036Z,99.90
2018-06-21T22:15:45.672Z,99.90
2018-06-21T22:18:14.176Z,99.90
2018-06-21T22:20:42.617Z,99.90
2018-06-21T22:25:39.219Z,99.90
2018-06-21T22:28:07.604Z,99.90
2018-06-21T22:30:36.040Z,99.90
2018-06-21T22:33:04.470Z,99.90
2018-06-21T22:35:32.865Z,99.90
2018-06-21T22:38:01.289Z,99.90
2018-06-21T22:40:29.680Z,99.90
2018-06-21T22:42:58.080Z,99.90
2018-06-21T22:45:26.448Z,99.90
2018-06-21T22:47:54.875Z,99.90
2018-06-21T22:50:23.302Z,99.90
2018-06-21T22:52:51.817Z,99.90
2018-06-21T22:55:20.213Z,99.90
2018-06-21T22:57:48.684Z,99.90
2018-06-21T23:00:17.684Z,99.90
2018-06-21T23:02:46.356Z,99.90
2018-06-21T23:05:15.237Z,99.90
2018-06-21T23:07:43.640Z,99.90
2018-06-21T23:10:12.001Z,99.90
2018-06-21T23:12:40.420Z,99.90
2018-06-21T23:15:08.818Z,99.90
2018-06-21T23:17:37.273Z,99.90
2018-06-21T23:20:05.652Z,99.90
2018-06-21T23:22:34.023Z,99.90
2018-06-21T23:25:02.401Z,99.90
2018-06-21T23:27:30.772Z,99.90
2018-06-21T23:29:59.165Z,99.90
2018-06-21T23:32:27.566Z,99.90
2018-06-21T23:37:24.104Z,99.90
2018-06-21T23:39:52.465Z,99.90
2018-06-21T23:42:20.951Z,99.90
2018-06-21T23:44:49.348Z,99.90
2018-06-21T23:47:17.768Z,99.90
2018-06-21T23:49:46.141Z,99.90
2018-06-21T23:52:14.558Z,99.90
2018-06-21T23:54:42.932Z,99.90
2018-06-21T23:57:11.369Z,99.90
2018-06-21T23:59:39.773Z,99.90
